createdAt,value
2022-09-30T00:03:20.377Z,89.05
2022-09-30T00:08:23.778Z,89.27
2022-09-30T00:13:27.622Z,89.63
2022-09-30T00:18:31.635Z,89.90
2022-09-30T00:23:38.118Z,89.92
2022-09-30T00:28:42.337Z,89.98
2022-09-30T00:34:06.841Z,90.29
2022-09-30T00:39:14.144Z,90.62
2022-09-30T00:44:45.887Z,90.71
2022-09-30T00:49:49.516Z,90.79
2022-09-30T00:54:54.064Z,90.82
2022-09-30T00:59:57.883Z,91.04
2022-09-30T01:05:01.136Z,91.32
2022-09-30T01:10:04.336Z,91.30
2022-09-30T01:15:08.127Z,91.36
2022-09-30T01:21:19.271Z,91.37
2022-09-30T01:26:46.448Z,91.75
2022-09-30T01:32:04.918Z,91.92
2022-09-30T01:37:31.554Z,92.12
2022-09-30T01:43:00.315Z,92.17
2022-09-30T01:48:21.532Z,92.12
2022-09-30T01:53:25.115Z,91.70
2022-09-30T01:58:45.457Z,91.82
2022-09-30T02:03:53.787Z,91.93
2022-09-30T02:09:07.859Z,91.70
2022-09-30T02:14:41.678Z,91.33
2022-09-30T02:19:57.246Z,91.31
2022-09-30T02:25:02.748Z,91.47
2022-09-30T02:30:09.612Z,91.74
2022-09-30T02:35:27.113Z,92.01
2022-09-30T02:40:44.787Z,91.58
2022-09-30T02:46:10.675Z,91.09
2022-09-30T02:51:19.598Z,91.72
2022-09-30T02:56:48.944Z,92.41
2022-09-30T03:01:52.247Z,92.14
2022-09-30T03:06:55.820Z,91.54
2022-09-30T03:12:33.111Z,91.36
2022-09-30T03:17:45.445Z,91.89
2022-09-30T03:23:27.766Z,91.54
2022-09-30T03:28:38.920Z,91.44
2022-09-30T03:33:52.687Z,91.08
2022-09-30T03:39:03.062Z,91.21
2022-09-30T03:44:15.212Z,91.17
2022-09-30T03:49:28.627Z,91.11
2022-09-30T03:54:32.450Z,91.09
2022-09-30T03:59:35.686Z,90.93
2022-09-30T04:04:43.027Z,90.86
2022-09-30T04:09:46.361Z,90.98
2022-09-30T04:14:49.615Z,91.16
2022-09-30T04:19:53.248Z,91.00
2022-09-30T04:24:56.554Z,91.18
2022-09-30T04:29:59.825Z,91.53
2022-09-30T04:35:03.882Z,91.50
2022-09-30T04:40:07.552Z,91.39
2022-09-30T04:45:13.045Z,91.53
2022-09-30T04:50:16.471Z,91.72
2022-09-30T04:55:19.924Z,91.81
2022-09-30T05:00:23.243Z,91.57
2022-09-30T05:05:26.492Z,91.41
2022-09-30T05:10:30.273Z,91.18
2022-09-30T05:15:35.316Z,90.41
2022-09-30T05:20:38.594Z,89.94
2022-09-30T05:25:42.404Z,90.51
2022-09-30T05:30:47.047Z,90.85
2022-09-30T05:35:50.437Z,90.72
2022-09-30T05:40:54.809Z,90.37
2022-09-30T05:45:58.090Z,90.56
2022-09-30T05:51:01.873Z,90.54
2022-09-30T05:56:12.303Z,90.63
2022-09-30T06:01:17.414Z,90.72
2022-09-30T06:06:21.899Z,90.57
2022-09-30T06:11:25.536Z,90.26
2022-09-30T06:16:30.086Z,89.46
2022-09-30T06:21:33.405Z,89.29
2022-09-30T06:26:36.739Z,89.24
2022-09-30T06:31:40.161Z,89.06
2022-09-30T06:36:43.539Z,88.73
2022-09-30T06:41:47.051Z,88.53
2022-09-30T06:46:55.997Z,88.45
2022-09-30T06:52:00.802Z,88.42
2022-09-30T06:57:04.031Z,88.34
2022-09-30T07:02:07.238Z,88.12
2022-09-30T07:07:11.451Z,87.90
2022-09-30T07:12:14.707Z,87.75
2022-09-30T07:17:17.986Z,87.42
2022-09-30T07:22:28.313Z,87.24
2022-09-30T07:27:33.013Z,87.01
2022-09-30T07:32:37.013Z,86.92
2022-09-30T07:37:40.271Z,86.78
2022-09-30T07:42:46.233Z,86.87
2022-09-30T07:47:53.730Z,86.74
2022-09-30T07:52:57.975Z,86.22
2022-09-30T07:58:02.188Z,86.00
2022-09-30T08:03:05.661Z,85.41
2022-09-30T08:08:09.090Z,84.94
2022-09-30T08:13:14.266Z,85.00
2022-09-30T08:18:19.291Z,84.16
2022-09-30T08:23:23.170Z,84.52
2022-09-30T08:28:26.401Z,84.60
2022-09-30T08:33:29.664Z,83.55
2022-09-30T08:38:33.778Z,82.83
2022-09-30T08:44:05.178Z,80.60
2022-09-30T08:49:54.578Z,80.03
2022-09-30T08:54:58.175Z,81.28
2022-09-30T09:00:10.501Z,79.94
2022-09-30T09:05:23.728Z,79.23
2022-09-30T09:10:28.281Z,79.10
2022-09-30T09:15:44.098Z,78.99
2022-09-30T09:20:54.347Z,79.35
2022-09-30T09:25:59.100Z,77.88
2022-09-30T09:31:04.521Z,77.77
2022-09-30T09:36:49.843Z,76.21
2022-09-30T09:42:05.103Z,75.31
2022-09-30T09:47:17.630Z,76.30
2022-09-30T09:52:40.196Z,75.52
2022-09-30T09:57:43.519Z,75.58
2022-09-30T10:02:59.535Z,72.70
2022-09-30T10:08:16.374Z,70.78
2022-09-30T10:13:27.060Z,72.01
2022-09-30T10:18:38.029Z,74.20
2022-09-30T10:23:41.611Z,72.26
2022-09-30T10:28:55.378Z,72.26
2022-09-30T10:34:17.520Z,71.11
2022-09-30T10:39:34.857Z,72.96
2022-09-30T10:44:55.749Z,70.73
2022-09-30T10:50:07.321Z,72.69
2022-09-30T10:55:19.875Z,68.76
2022-09-30T11:00:25.557Z,67.84
2022-09-30T11:05:47.828Z,70.14
2022-09-30T11:11:08.842Z,68.87
2022-09-30T11:16:19.577Z,68.80
2022-09-30T11:21:28.102Z,65.97
2022-09-30T11:26:54.080Z,66.30
2022-09-30T11:32:19.693Z,61.98
2022-09-30T11:37:42.463Z,61.23
2022-09-30T11:43:17.012Z,60.57
2022-09-30T11:48:43.033Z,61.76
2022-09-30T11:53:58.668Z,59.42
2022-09-30T11:59:06.982Z,60.65
2022-09-30T12:04:21.297Z,59.39
2022-09-30T12:10:01.817Z,62.80
2022-09-30T12:15:16.051Z,60.13
2022-09-30T12:20:39.878Z,58.07
2022-09-30T12:25:56.842Z,58.97
2022-09-30T12:31:54.866Z,60.29
2022-09-30T12:37:58.615Z,61.44
2022-09-30T12:43:43.226Z,61.73
2022-09-30T12:49:08.055Z,60.45
2022-09-30T12:54:30.623Z,60.67
2022-09-30T12:59:45.279Z,61.07
2022-09-30T13:05:24.500Z,58.37
2022-09-30T13:10:36.999Z,59.55
2022-09-30T13:15:56.730Z,58.21
2022-09-30T13:21:05.979Z,59.28
2022-09-30T13:26:27.985Z,57.81
2022-09-30T13:31:52.783Z,58.80
2022-09-30T13:37:05.767Z,60.86
2022-09-30T13:42:21.802Z,60.09
2022-09-30T13:47:45.470Z,61.28
2022-09-30T13:53:23.323Z,58.34
2022-09-30T13:58:56.408Z,60.05
2022-09-30T14:04:12.338Z,61.20
2022-09-30T14:09:42.347Z,60.14
2022-09-30T14:15:09.113Z,61.12
2022-09-30T14:20:32.235Z,60.00
2022-09-30T14:26:01.533Z,61.39
2022-09-30T14:36:34.339Z,61.00
2022-09-30T14:42:03.470Z,60.68
2022-09-30T14:47:17.193Z,61.86
2022-09-30T14:52:53.577Z,60.86
2022-09-30T14:58:21.872Z,60.75
2022-09-30T15:04:02.399Z,59.71
2022-09-30T15:09:18.192Z,60.10
2022-09-30T15:14:27.160Z,60.78
2022-09-30T15:19:44.853Z,61.51
2022-09-30T15:24:49.257Z,61.40
2022-09-30T15:29:56.606Z,61.71
2022-09-30T15:35:11.723Z,62.91
2022-09-30T15:40:39.611Z,63.68
2022-09-30T15:45:44.563Z,64.38
2022-09-30T15:50:50.032Z,65.87
2022-09-30T15:56:17.105Z,66.70
2022-09-30T16:01:46.618Z,68.46
2022-09-30T16:07:32.230Z,70.77
2022-09-30T16:12:41.823Z,71.43
2022-09-30T16:18:02.658Z,72.48
2022-09-30T16:23:13.159Z,73.83
2022-09-30T16:28:18.641Z,74.68
2022-09-30T16:33:22.348Z,74.68
2022-09-30T16:38:30.684Z,75.53
2022-09-30T16:43:36.714Z,77.18
2022-09-30T16:48:40.097Z,79.21
2022-09-30T16:53:48.133Z,80.13
2022-09-30T16:58:51.765Z,80.99
2022-09-30T17:04:01.206Z,81.63
2022-09-30T17:09:10.213Z,82.35
2022-09-30T17:14:19.269Z,82.42
2022-09-30T17:19:25.105Z,82.44
2022-09-30T17:24:32.757Z,82.90
2022-09-30T17:29:44.392Z,83.16
2022-09-30T17:34:47.852Z,83.80
2022-09-30T17:39:55.749Z,83.71
2022-09-30T17:45:02.622Z,84.22
2022-09-30T17:50:16.362Z,84.22
2022-09-30T17:55:34.391Z,85.12
2022-09-30T18:00:44.192Z,86.32
2022-09-30T18:06:01.494Z,86.34
2022-09-30T18:11:13.875Z,85.99
2022-09-30T18:16:19.058Z,86.31
2022-09-30T18:21:24.493Z,86.58
2022-09-30T18:26:46.392Z,86.87
2022-09-30T18:31:53.031Z,86.83
2022-09-30T18:36:57.103Z,86.63
2022-09-30T18:42:07.255Z,86.72
2022-09-30T18:47:18.537Z,87.03
2022-09-30T18:52:24.746Z,87.37
2022-09-30T18:57:36.148Z,86.87
2022-09-30T19:02:48.952Z,86.57
2022-09-30T19:07:57.531Z,86.72
2022-09-30T19:13:18.040Z,86.90
2022-09-30T19:18:26.052Z,87.05
2022-09-30T19:23:33.207Z,88.40
2022-09-30T19:28:39.707Z,89.21
2022-09-30T19:33:56.004Z,89.56
2022-09-30T19:39:11.221Z,89.52
2022-09-30T19:44:20.552Z,89.93
2022-09-30T19:49:26.196Z,90.51
2022-09-30T19:54:40.980Z,90.66
2022-09-30T19:59:45.895Z,90.63
2022-09-30T20:04:54.745Z,90.81
2022-09-30T20:10:05.298Z,90.96
2022-09-30T20:15:34.532Z,91.20
2022-09-30T20:20:49.957Z,91.08
2022-09-30T20:25:57.402Z,90.59
2022-09-30T20:31:12.027Z,90.25
2022-09-30T20:36:20.577Z,90.44
2022-09-30T20:41:37.531Z,90.63
2022-09-30T20:46:42.790Z,90.87
2022-09-30T20:52:14.232Z,91.11
2022-09-30T20:57:19.422Z,91.25
2022-09-30T21:02:27.801Z,91.38
2022-09-30T21:07:31.421Z,91.36
2022-09-30T21:12:44.787Z,91.30
2022-09-30T21:18:04.963Z,91.60
2022-09-30T21:23:09.828Z,91.80
2022-09-30T21:28:16.108Z,91.84
2022-09-30T21:33:26.237Z,91.78
2022-09-30T21:38:30.894Z,91.87
2022-09-30T21:43:38.305Z,91.85
2022-09-30T21:48:46.916Z,91.84
2022-09-30T21:53:52.287Z,91.92
2022-09-30T21:58:58.432Z,91.76
2022-09-30T22:04:01.856Z,91.72
2022-09-30T22:09:16.270Z,91.67
2022-09-30T22:14:20.208Z,91.54
2022-09-30T22:19:24.583Z,91.45
2022-09-30T22:24:28.385Z,91.67
2022-09-30T22:29:32.812Z,91.66
2022-09-30T22:34:57.262Z,91.72
2022-09-30T22:40:01.150Z,91.60
2022-09-30T22:45:06.722Z,91.42
2022-09-30T22:50:10.043Z,91.54
2022-09-30T22:55:15.176Z,91.58
2022-09-30T23:00:19.371Z,91.50
2022-09-30T23:05:29.033Z,91.57
2022-09-30T23:10:33.053Z,91.62
2022-09-30T23:15:37.230Z,91.63
2022-09-30T23:20:54.298Z,91.54
2022-09-30T23:26:08.843Z,91.74
2022-09-30T23:31:18.682Z,91.81
2022-09-30T23:36:27.495Z,91.89
2022-09-30T23:41:37.017Z,92.00
2022-09-30T23:47:01.493Z,92.09
2022-09-30T23:52:13.770Z,92.16
2022-09-30T23:57:25.891Z,92.14
